VRMM/MLE METAR and TAF weather

Enter ICAO airport designator
Station Type Date Time Source
VRMM METAR 2020/07/11 04:00 UTC NOAA

VRMM 110400Z 19008KT 9999 FEW018 BKN240 30/27 Q1009 NOSIG


Station Type Date Time Source
VRMM Decoded METAR 2020/07/11 04:00 UTC NOAA

Male, Maldives (VRMM) 04-12N 073-32E 2M
Jul 11, 2020 - 12:00 AM EDT / 2020.07.11 0400 UTC
Wind: from the S (190 degrees) at 9 MPH (8 KT):0
Visibility: greater than 7 mile(s):0
Sky conditions: mostly cloudy
Temperature: 86 F (30 C)
Heat index: 101.8 F (38.8 C):1
Dew Point: 80 F (27 C)
Relative Humidity: 84%
Pressure (altimeter): 29.80 in. Hg (1009 hPa)
ob: VRMM 110400Z 19008KT 9999 FEW018 BKN240 30/27 Q1009 NOSIG
cycle: 4

Station Type Date Time Source
VRMM TAF 2020/07/10 12:12 UTC NOAA

TAF VRMM 101100Z 1012/1118 21009KT 9999 FEW018TCU SCT110
TEMPO 1013/1019 5000 -TSRA FEW018CB

Example: see airport list